Decoded Metar for KGRD (GREENWOOD in SC, USA) (IATA:GRD) | Meteo·Mobile Aviation Weather
aviador You're here:

KGRD Decoded Metar

GREENWOOD in SC, USA
Report Time2018-10-18 08:56:00
UTC Time2018-10-18 09:29:46
Flight Rules vfr VFR
Wind060° at 03 kt
W.Decomp.*RWY 09: 2.7 kt HW 1.3 kt LCW
W.Rank060° ranks 15
Current wind is below 060° avg. (5.4)
Visibility9999 m
Phenomena:N/A
Clouds:N/A
Expected CloudBase > 1,600 ft AGL from Temp-Dew spread
CeilingNone
Temp12°C (ISA -2)
Dew Point08°C (77% RH)
AAT10.5°C
QNH1026 hPa
Density Alt102 ft
Elevation607 ft
Report Wrong Elevation
Raw Report
KGRD 180856Z AUTO 06003KT 10SM CLR 12/08 A3030 RMK AO2 SLP255
T01220078 53007=

Extra information for KGRD:More info

Metar Taf Metar & Taf Last 4 Metars F.Rules Stats Wind Profile Meteogram Temp Stats Airport Information Weather charts Add Link Nearby VenuesMetar ALERT Operation Metar Decoded Social comments

AIRNAV info for KGRD